Swansea — D5FD2 — position and weather

sailwx.info

Track history (hours):
 
Tides and Currents Weather Stations Pressure Air Temp Water Temp Dewpoint Dewpoint Depression Visibility Wind Speed Wind Dir Waves Ship Positions

Swansea

Last reported at 2017-Sep-19 22:28 UTC. Time now 2017-Sep-19 22:41 UTC.
Position N 53°56' E 007°43'.

Length 271 m; draft 13 m.

Type: Cargo ship. MMSI: 636016231.

Date/timePositionNaut miles runAvg speedWind from/ knotsBaromVisibWave heightAir tempDewpointWater temp
2017-Sep-19 22:28N 53°56' E 007°43'614.0
2017-Sep-19 22:00N 53°52' E 007°51'612.8
2017-Sep-19 21:30N 53°51' E 008°02'713.7
2017-Sep-19 21:00N 53°46' E 008°10'612.2
2017-Sep-19 20:30N 53°43' E 008°18'611.2
2017-Sep-19 20:00N 53°39' E 008°25'4 8.4
2017-Sep-19 19:30N 53°36' E 008°31'0 0.2
2017-Sep-19 19:00N 53°36' E 008°31'0 0.0
2017-Sep-19 18:30N 53°36' E 008°31'0 0.0
2017-Sep-19 18:00N 53°36' E 008°31'0 0.0
2017-Sep-19 17:30N 53°36' E 008°31'0 0.0
2017-Sep-19 17:00N 53°36' E 008°31'0 0.0
2017-Sep-19 16:30N 53°36' E 008°31'0 0.0
2017-Sep-19 16:00N 53°36' E 008°31'0 0.0
2017-Sep-19 15:30N 53°36' E 008°31'0 0.0
2017-Sep-19 15:00N 53°36' E 008°31'0 0.0
2017-Sep-19 14:30N 53°36' E 008°31'0 0.0
2017-Sep-19 14:00N 53°36' E 008°31'0 0.0
2017-Sep-19 13:30N 53°36' E 008°31'0 0.0
2017-Sep-19 13:00N 53°36' E 008°31'0 0.0
2017-Sep-19 12:30N 53°36' E 008°31'0 0.0
2017-Sep-19 12:00N 53°36' E 008°31'0 0.0
2017-Sep-19 11:30N 53°36' E 008°31'0 0.0
2017-Sep-19 11:00N 53°36' E 008°31'0 0.0
2017-Sep-19 10:30N 53°36' E 008°31'0 0.0
2017-Sep-19 10:00N 53°36' E 008°31'0 0.0
2017-Sep-19 09:30N 53°36' E 008°31'0 0.0
2017-Sep-19 09:00N 53°36' E 008°31'0 0.0
2017-Sep-19 08:30N 53°36' E 008°31'0 0.0
2017-Sep-19 08:00N 53°36' E 008°31'0 0.1
2017-Sep-19 07:30N 53°36' E 008°31'0 0.1
2017-Sep-19 07:00N 53°36' E 008°31'0 0.0
2017-Sep-19 06:30N 53°36' E 008°31'0 0.0
2017-Sep-19 06:00N 53°36' E 008°31'0 0.0
2017-Sep-19 05:30N 53°36' E 008°31'0 0.0
2017-Sep-19 05:00N 53°36' E 008°31'0 0.0
2017-Sep-19 04:30N 53°36' E 008°31'0 0.0
2017-Sep-19 04:00N 53°36' E 008°31'0 0.0
2017-Sep-19 03:30N 53°36' E 008°31'0 0.0
2017-Sep-19 03:00N 53°36' E 008°31'0 0.0
2017-Sep-19 02:30N 53°36' E 008°31'0 0.0
2017-Sep-19 02:00N 53°36' E 008°31'0 0.0
2017-Sep-19 01:30N 53°36' E 008°31'0 0.0
2017-Sep-19 01:00N 53°36' E 008°31'0 0.0
2017-Sep-19 00:30N 53°36' E 008°31'0 0.0
2017-Sep-19 00:00N 53°36' E 008°31'0 0.0
2017-Sep-18 23:30N 53°36' E 008°31'0 0.0
2017-Sep-18 23:00N 53°36' E 008°31'0 0.0
2017-Sep-18 22:30N 53°36' E 008°31'0 0.0
2017-Sep-18 22:00N 53°36' E 008°31'0 0.0
2017-Sep-18 21:30N 53°36' E 008°31'0 0.0
2017-Sep-18 21:00N 53°36' E 008°31'0 0.0
2017-Sep-18 20:30N 53°36' E 008°31'0 0.0
2017-Sep-18 20:00N 53°36' E 008°31'0 0.0
2017-Sep-18 19:30N 53°36' E 008°31'0 0.0
2017-Sep-18 19:00N 53°36' E 008°31'0 0.0
2017-Sep-18 18:30N 53°36' E 008°31'0 0.0
2017-Sep-18 18:00N 53°36' E 008°31'0 0.0
2017-Sep-18 17:30N 53°36' E 008°31'0 0.0
2017-Sep-18 17:00N 53°36' E 008°31'0 0.0
2017-Sep-18 16:30N 53°36' E 008°31'0 0.0
2017-Sep-18 16:00N 53°36' E 008°31'0 0.0
2017-Sep-18 15:30N 53°36' E 008°31'0 0.0
2017-Sep-18 15:00N 53°36' E 008°31'0 0.0
2017-Sep-18 14:30N 53°36' E 008°31'0 0.0
2017-Sep-18 14:00N 53°36' E 008°31'0 0.6
2017-Sep-18 13:30N 53°36' E 008°30'5 9.7
2017-Sep-18 13:00N 53°39' E 008°24'612.5
2017-Sep-18 12:31N 53°43' E 008°16'713.7
2017-Sep-18 12:00N 53°48' E 008°08'714.1
2017-Sep-18 11:30N 53°51' E 007°57'612.7
2017-Sep-18 11:00N 53°53' E 007°46'8 4.7
2017-Sep-18 09:20N 53°52' E 007°33'0 0.1
2017-Sep-18 09:00N 53°52' E 007°33'0 0.1
2017-Sep-18 08:30N 53°52' E 007°33'0 0.4
2017-Sep-18 07:58N 53°52' E 007°33'0 0.8
2017-Sep-18 07:30N 53°53' E 007°33'1 2.0
2017-Sep-18 06:59N 53°53' E 007°34'1 1.5
2017-Sep-18 06:30N 53°53' E 007°33'1 1.5
2017-Sep-18 06:00N 53°53' E 007°32'1 2.1
2017-Sep-18 05:30N 53°53' E 007°30'3 6.1
2017-Sep-18 05:00N 53°53' E 007°25'1110.2
2017-Sep-18 03:56N 53°50' E 007°07'59 9.1
2017-Sep-17 21:30N 53°35' E 005°31'5 9.4
2017-Sep-17 21:00N 53°33' E 005°24'5 9.3
2017-Sep-17 20:30N 53°32' E 005°17'5 9.5
2017-Sep-17 20:00N 53°30' E 005°09'5 9.7
2017-Sep-17 19:30N 53°28' E 005°02'5 9.9
2017-Sep-17 19:00N 53°27' E 004°54'510.2
2017-Sep-17 18:30N 53°25' E 004°46'5 9.3
2017-Sep-17 18:00N 53°21' E 004°41'510.0
2017-Sep-17 17:30N 53°17' E 004°37'510.8
2017-Sep-17 17:00N 53°12' E 004°33'610.8
2017-Sep-17 16:27N 53°07' E 004°28'610.7
2017-Sep-17 15:54N 53°02' E 004°24'510.7
2017-Sep-17 15:28N 52°57' E 004°20'711.0
2017-Sep-17 14:51N 52°51' E 004°15'411.2
2017-Sep-17 14:30N 52°48' E 004°11'611.3
2017-Sep-17 14:00N 52°43' E 004°06'611.4
2017-Sep-17 13:28N 52°38' E 004°01'511.4
2017-Sep-17 13:00N 52°33' E 003°57'611.4
2017-Sep-17 12:30N 52°28' E 003°54'611.4
2017-Sep-17 12:00N 52°22' E 003°52'611.3
2017-Sep-17 11:30N 52°17' E 003°53'611.2
2017-Sep-17 11:00N 52°11' E 003°54'815.5
2017-Sep-17 10:31N 52°04' E 003°55'510.2
2017-Sep-17 10:00N 52°00' E 004°01'3 6.1
2017-Sep-17 09:31N 51°58' E 004°04'2 4.9
2017-Sep-17 09:01N 51°58' E 003°60'1 1.3
2017-Sep-17 08:31N 51°57' E 003°60'0 0.0
2017-Sep-17 07:59N 51°57' E 003°60'0 0.0
2017-Sep-17 07:29N 51°57' E 003°60'0 0.0
2017-Sep-17 06:59N 51°57' E 003°60'0 0.0
2017-Sep-17 06:29N 51°57' E 003°60'0 0.0
2017-Sep-17 05:59N 51°57' E 003°60'0 0.0
2017-Sep-17 05:29N 51°57' E 003°60'0 0.0
2017-Sep-17 04:59N 51°57' E 003°60'0 0.0
2017-Sep-17 04:26N 51°57' E 003°60'0 0.1
2017-Sep-17 03:59N 51°57' E 003°60'0 0.0
2017-Sep-17 03:29N 51°57' E 003°60'0 0.0
2017-Sep-17 02:59N 51°57' E 003°60'0 0.0
2017-Sep-17 02:29N 51°57' E 003°60'0 0.0
2017-Sep-17 01:59N 51°57' E 003°60'0 0.0
2017-Sep-17 01:29N 51°57' E 003°60'0 0.0
2017-Sep-17 00:59N 51°57' E 003°60'0 0.0
2017-Sep-17 00:29N 51°57' E 003°60'0 0.0
2017-Sep-16 23:59N 51°57' E 003°60'0 0.0
2017-Sep-16 23:29N 51°57' E 003°60'0 0.0
2017-Sep-16 22:59N 51°57' E 003°60'0 0.0
2017-Sep-16 22:29N 51°57' E 003°60'0 0.0
2017-Sep-16 21:59N 51°57' E 003°60'0 0.0
2017-Sep-16 21:29N 51°57' E 003°60'0 0.0
2017-Sep-16 20:59N 51°57' E 003°60'0 0.0
2017-Sep-16 20:29N 51°57' E 003°60'0 0.0
2017-Sep-16 19:59N 51°57' E 003°60'0 0.0
2017-Sep-16 19:29N 51°57' E 003°60'0 0.0
2017-Sep-16 18:59N 51°57' E 003°60'0 0.0
2017-Sep-16 18:29N 51°57' E 003°60'0 0.0
2017-Sep-16 17:59N 51°57' E 003°60'0 0.0
2017-Sep-16 17:29N 51°57' E 003°60'0 0.0
2017-Sep-16 16:59N 51°57' E 003°60'0 0.0
2017-Sep-16 16:30N 51°57' E 003°60'1 2.8
2017-Sep-16 16:00N 51°59' E 004°00'3 6.5
2017-Sep-16 15:30N 51°58' E 004°05'4 8.4
2017-Sep-16 15:00N 51°60' E 003°59'815.4
2017-Sep-16 14:30N 51°60' E 003°47'510.4
2017-Sep-16 14:00N 51°58' E 003°38'816.0
2017-Sep-16 13:29N 51°57' E 003°25'916.4
2017-Sep-16 12:57N 51°55' E 003°12'3917.0
2017-Sep-16 10:39N 51°52' E 002°08'318.7
2017-Sep-16 10:30N 51°51' E 002°04'918.7
2017-Sep-16 10:00N 51°49' E 001°50'713.2
2017-Sep-16 09:31N 51°51' E 001°40'5 9.9
2017-Sep-16 09:00N 51°54' E 001°34'714.6
2017-Sep-16 08:30N 51°56' E 001°22'3 6.7
2017-Sep-16 08:00N 51°58' E 001°18'0 0.0
2017-Sep-16 07:29N 51°58' E 001°18'0 0.0
2017-Sep-16 06:59N 51°58' E 001°18'0 0.0
2017-Sep-16 06:29N 51°58' E 001°18'0 0.0
2017-Sep-16 05:59N 51°58' E 001°18'0 0.0
2017-Sep-16 05:29N 51°58' E 001°18'0 0.0
2017-Sep-16 04:59N 51°58' E 001°18'0 0.0
2017-Sep-16 04:29N 51°58' E 001°18'0 0.0
2017-Sep-16 03:59N 51°58' E 001°18'0 0.0
2017-Sep-16 03:29N 51°58' E 001°18'0 0.0
2017-Sep-16 02:59N 51°58' E 001°18'0 0.0
2017-Sep-16 02:29N 51°58' E 001°18'0 0.0
2017-Sep-16 01:59N 51°58' E 001°18'0 0.0
2017-Sep-16 01:29N 51°58' E 001°18'0 0.0
2017-Sep-16 00:59N 51°58' E 001°18'0 0.0
2017-Sep-16 00:29N 51°58' E 001°18'0 0.0
2017-Sep-15 23:59N 51°58' E 001°18'0 0.0
2017-Sep-15 23:29N 51°58' E 001°18'0 0.0
2017-Sep-15 22:59N 51°58' E 001°18'0 0.0
2017-Sep-15 22:29N 51°58' E 001°18'0 0.0
2017-Sep-15 21:59N 51°58' E 001°18'0 0.0
2017-Sep-15 21:29N 51°58' E 001°18'0 0.0
2017-Sep-15 20:59N 51°58' E 001°18'0 0.0
2017-Sep-15 20:29N 51°58' E 001°18'0 0.0
2017-Sep-15 19:59N 51°58' E 001°18'0 0.0
2017-Sep-15 19:29N 51°58' E 001°18'0 0.0
2017-Sep-15 18:59N 51°58' E 001°18'0 0.0
2017-Sep-15 18:29N 51°58' E 001°18'0 0.0
2017-Sep-15 17:59N 51°58' E 001°18'0 0.0
2017-Sep-15 17:29N 51°58' E 001°18'0 0.0
2017-Sep-15 16:59N 51°58' E 001°18'0 0.0
2017-Sep-15 16:29N 51°58' E 001°18'0 0.0
2017-Sep-15 15:59N 51°58' E 001°18'0 0.0
2017-Sep-15 15:29N 51°58' E 001°18'0 0.0
2017-Sep-15 14:59N 51°58' E 001°18'0 0.0
2017-Sep-15 14:29N 51°58' E 001°18'0 0.0
2017-Sep-15 13:59N 51°58' E 001°18'0 0.0
2017-Sep-15 13:29N 51°58' E 001°18'0 0.0
2017-Sep-15 12:59N 51°58' E 001°18'0 0.0
2017-Sep-15 12:29N 51°58' E 001°18'0 0.0
2017-Sep-15 11:59N 51°58' E 001°18'0 0.0
2017-Sep-15 11:29N 51°58' E 001°18'0 0.0
2017-Sep-15 10:59N 51°58' E 001°18'0 0.0
2017-Sep-15 10:29N 51°58' E 001°18'0 0.0
2017-Sep-15 09:59N 51°58' E 001°18'0 0.0
2017-Sep-15 09:29N 51°58' E 001°18'0 0.0
2017-Sep-15 08:59N 51°58' E 001°18'0 0.0
2017-Sep-15 08:29N 51°58' E 001°18'0 0.0
2017-Sep-15 07:59N 51°58' E 001°18'0 0.0
2017-Sep-15 07:29N 51°58' E 001°18'0 0.0
2017-Sep-15 06:59N 51°58' E 001°18'0 0.0
2017-Sep-15 06:29N 51°58' E 001°18'0 0.0
2017-Sep-15 05:59N 51°58' E 001°18'0 0.0
2017-Sep-15 05:29N 51°58' E 001°18'0 0.0
2017-Sep-15 04:59N 51°58' E 001°18'0 0.0
2017-Sep-15 04:29N 51°58' E 001°18'0 0.0
2017-Sep-15 03:59N 51°58' E 001°18'0 0.0
2017-Sep-15 03:29N 51°58' E 001°18'0 0.0
2017-Sep-15 02:59N 51°58' E 001°18'0 0.0
2017-Sep-15 02:29N 51°58' E 001°18'0 0.0
2017-Sep-15 01:59N 51°58' E 001°18'0 0.0
2017-Sep-15 01:29N 51°58' E 001°18'0 0.0
2017-Sep-15 00:59N 51°58' E 001°18'0 0.0
2017-Sep-15 00:29N 51°58' E 001°18'0 0.0
2017-Sep-14 23:59N 51°58' E 001°18'0 0.0
2017-Sep-14 23:29N 51°58' E 001°18'0 0.5
2017-Sep-14 23:01N 51°57' E 001°18'1 1.8
2017-Sep-14 22:31N 51°57' E 001°19'3 6.9
2017-Sep-14 22:00N 51°56' E 001°24'612.5
2017-Sep-14 21:31N 51°54' E 001°34'510.0
2017-Sep-14 21:01N 51°52' E 001°41'3 6.2
2017-Sep-14 20:31N 51°52' E 001°46'2 4.9
2017-Sep-14 20:00N 51°53' E 001°49'1 1.4
2017-Sep-14 19:30N 51°53' E 001°48'1 1.1
2017-Sep-14 19:00N 51°52' E 001°48'1 2.6
2017-Sep-14 18:30N 51°51' E 001°49'4 8.3
2017-Sep-14 18:01N 51°47' E 001°49'611.3
2017-Sep-14 17:30N 51°41' E 001°50'510.5
2017-Sep-14 17:00N 51°36' E 001°52'510.6
2017-Sep-14 16:31N 51°32' E 001°56'510.5
2017-Sep-14 16:00N 51°28' E 002°02'5 9.8
2017-Sep-14 15:30N 51°23' E 002°02'510.3
2017-Sep-14 15:00N 51°19' E 001°57'5 9.8
2017-Sep-14 14:30N 51°15' E 001°52'5 9.4
2017-Sep-14 14:00N 51°12' E 001°47'4 9.0
2017-Sep-14 13:30N 51°08' E 001°43'4 8.9
2017-Sep-14 13:01N 51°04' E 001°39'4 8.7
2017-Sep-14 12:30N 51°00' E 001°36'4 8.5
2017-Sep-14 12:00N 50°57' E 001°32'4 8.8
2017-Sep-14 11:30N 50°53' E 001°28'5 9.2
2017-Sep-14 11:00N 50°49' E 001°25'5 9.5
2017-Sep-14 10:30N 50°45' E 001°22'5 9.3
2017-Sep-14 10:00N 50°41' E 001°18'5 9.8
2017-Sep-14 09:30N 50°38' E 001°12'11 9.8
2017-Sep-14 08:24N 50°30' E 000°60'5 9.6
2017-Sep-14 07:55N 50°28' E 000°53'410.4
2017-Sep-14 07:30N 50°28' E 000°47'510.4
2017-Sep-14 07:00N 50°27' E 000°38'510.4
2017-Sep-14 06:30N 50°25' E 000°31'510.3
2017-Sep-14 06:00N 50°24' E 000°23'510.3
2017-Sep-14 05:30N 50°22' E 000°15'510.1
2017-Sep-14 05:00N 50°21' E 000°08'510.2
2017-Sep-14 04:30N 50°19' E 000°00'510.3
2017-Sep-14 04:00N 50°18' W 000°07'510.7
2017-Sep-14 03:30N 50°16' W 000°16'611.3
2017-Sep-14 03:00N 50°15' W 000°24'611.7
2017-Sep-14 02:30N 50°13' W 000°33'1812.2
2017-Sep-14 01:02N 50°08' W 000°60'612.2
2017-Sep-14 00:32N 50°06' W 001°09'212.2
2017-Sep-14 00:23N 50°06' W 001°11'512.1
2017-Sep-14 00:01N 50°05' W 001°18'612.1
2017-Sep-13 23:30N 50°03' W 001°28'612.0
2017-Sep-13 23:01N 50°02' W 001°37'611.5
2017-Sep-13 22:30N 50°00' W 001°45'611.1
2017-Sep-13 22:01N 49°59' W 001°53'510.6
2017-Sep-13 21:30N 49°57' W 002°01'510.1
2017-Sep-13 21:00N 49°56' W 002°09'21 9.4
2017-Sep-13 18:49N 49°50' W 002°40'3 9.5
2017-Sep-13 18:30N 49°49' W 002°44'5 9.5
2017-Sep-13 18:00N 49°47' W 002°51'510.2
2017-Sep-13 17:30N 49°46' W 002°58'510.2
2017-Sep-13 17:00N 49°44' W 003°06'510.2
2017-Sep-13 16:30N 49°41' W 003°13'510.3
2017-Sep-13 16:00N 49°38' W 003°19'510.3
2017-Sep-13 15:30N 49°36' W 003°26'510.3
2017-Sep-13 15:00N 49°33' W 003°33'1410.2
2017-Sep-13 13:37N 49°26' W 003°52'1 9.8
2017-Sep-13 13:30N 49°25' W 003°53'510.0
2017-Sep-13 12:59N 49°23' W 004°00'510.0
2017-Sep-13 12:29N 49°20' W 004°07'510.2
2017-Sep-13 12:00N 49°18' W 004°13'2410.5
2017-Sep-13 09:42N 49°06' W 004°45'210.7
2017-Sep-13 09:30N 49°04' W 004°48'811.0
2017-Sep-13 08:45N 49°00' W 004°59'311.1
2017-Sep-13 08:28N 48°59' W 005°03'710.8
2017-Sep-13 07:51N 48°55' W 005°12'410.8
2017-Sep-13 07:30N 48°53' W 005°17'510.7
2017-Sep-13 07:00N 48°50' W 005°23'510.6
2017-Sep-13 06:30N 48°47' W 005°30'710.1
2017-Sep-13 05:50N 48°43' W 005°37'3 9.8
2017-Sep-13 05:30N 48°40' W 005°40'  
2017-Sep-11 00:33N 39°30' W 009°51'118.2
2017-Sep-11 00:30N 39°29' W 009°51'1217.7
2017-Sep-10 23:49N 39°17' W 009°52'517.6
2017-Sep-10 23:31N 39°11' W 009°52'917.8
2017-Sep-10 23:00N 39°02' W 009°52'918.1
2017-Sep-10 22:30N 38°53' W 009°52'917.6
2017-Sep-10 22:00N 38°45' W 009°52'917.7
2017-Sep-10 21:30N 38°36' W 009°50'918.1
2017-Sep-10 21:01N 38°27' W 009°47'918.3
2017-Sep-10 20:30N 38°18' W 009°44'918.3
2017-Sep-10 20:01N 38°09' W 009°42'917.8
2017-Sep-10 19:31N 38°01' W 009°39'917.1
2017-Sep-10 19:01N 37°52' W 009°37'816.8
2017-Sep-10 18:31N 37°44' W 009°35'816.4
2017-Sep-10 18:01N 37°36' W 009°33'816.7
2017-Sep-10 17:31N 37°28' W 009°30'917.1
2017-Sep-10 17:01N 37°19' W 009°28'816.9
2017-Sep-10 16:30N 37°11' W 009°25'816.7
2017-Sep-10 16:00N 37°03' W 009°22'816.8
2017-Sep-10 15:31N 36°55' W 009°19'816.6
2017-Sep-10 15:01N 36°48' W 009°13'1616.2
2017-Sep-10 14:01N 36°42' W 008°55'816.7
2017-Sep-10 13:31N 36°39' W 008°45'917.0
2017-Sep-10 13:00N 36°36' W 008°35'917.2
2017-Sep-10 12:31N 36°33' W 008°25'1117.5
2017-Sep-10 11:51N 36°29' W 008°12'617.5
2017-Sep-10 11:31N 36°28' W 008°04'12317.1
2017-Sep-10 04:21N 35°57' W 005°37'514.2
2017-Sep-10 04:00N 35°57' W 005°31'  
Track history (hours):
 
Tides and Currents Weather Stations Pressure Air Temp Water Temp Dewpoint Dewpoint Depression Visibility Wind Speed Wind Dir Waves Ship Positions

Swansea

Last reported at 2017-Sep-19 22:28 UTC. Time now 2017-Sep-19 22:41 UTC.
Position N 53°56' E 007°43'.

Length 271 m; draft 13 m.

Type: Cargo ship. MMSI: 636016231.

Date/timePositionNaut miles runAvg speedWind from/ knotsBaromVisibWave heightAir tempDewpointWater temp
2017-Sep-19 22:28N 53°56' E 007°43'614.0
2017-Sep-19 22:00N 53°52' E 007°51'612.8
2017-Sep-19 21:30N 53°51' E 008°02'713.7
2017-Sep-19 21:00N 53°46' E 008°10'612.2
2017-Sep-19 20:30N 53°43' E 008°18'611.2
2017-Sep-19 20:00N 53°39' E 008°25'4 8.4
2017-Sep-19 19:30N 53°36' E 008°31'0 0.2
2017-Sep-19 19:00N 53°36' E 008°31'0 0.0
2017-Sep-19 18:30N 53°36' E 008°31'0 0.0
2017-Sep-19 18:00N 53°36' E 008°31'0 0.0
2017-Sep-19 17:30N 53°36' E 008°31'0 0.0
2017-Sep-19 17:00N 53°36' E 008°31'0 0.0
2017-Sep-19 16:30N 53°36' E 008°31'0 0.0
2017-Sep-19 16:00N 53°36' E 008°31'0 0.0
2017-Sep-19 15:30N 53°36' E 008°31'0 0.0
2017-Sep-19 15:00N 53°36' E 008°31'0 0.0
2017-Sep-19 14:30N 53°36' E 008°31'0 0.0
2017-Sep-19 14:00N 53°36' E 008°31'0 0.0
2017-Sep-19 13:30N 53°36' E 008°31'0 0.0
2017-Sep-19 13:00N 53°36' E 008°31'0 0.0
2017-Sep-19 12:30N 53°36' E 008°31'0 0.0
2017-Sep-19 12:00N 53°36' E 008°31'0 0.0
2017-Sep-19 11:30N 53°36' E 008°31'0 0.0
2017-Sep-19 11:00N 53°36' E 008°31'0 0.0
2017-Sep-19 10:30N 53°36' E 008°31'0 0.0
2017-Sep-19 10:00N 53°36' E 008°31'0 0.0
2017-Sep-19 09:30N 53°36' E 008°31'0 0.0
2017-Sep-19 09:00N 53°36' E 008°31'0 0.0
2017-Sep-19 08:30N 53°36' E 008°31'0 0.0
2017-Sep-19 08:00N 53°36' E 008°31'0 0.1
2017-Sep-19 07:30N 53°36' E 008°31'0 0.1
2017-Sep-19 07:00N 53°36' E 008°31'0 0.0
2017-Sep-19 06:30N 53°36' E 008°31'0 0.0
2017-Sep-19 06:00N 53°36' E 008°31'0 0.0
2017-Sep-19 05:30N 53°36' E 008°31'0 0.0
2017-Sep-19 05:00N 53°36' E 008°31'0 0.0
2017-Sep-19 04:30N 53°36' E 008°31'0 0.0
2017-Sep-19 04:00N 53°36' E 008°31'0 0.0
2017-Sep-19 03:30N 53°36' E 008°31'0 0.0
2017-Sep-19 03:00N 53°36' E 008°31'0 0.0
2017-Sep-19 02:30N 53°36' E 008°31'0 0.0
2017-Sep-19 02:00N 53°36' E 008°31'0 0.0
2017-Sep-19 01:30N 53°36' E 008°31'0 0.0
2017-Sep-19 01:00N 53°36' E 008°31'0 0.0
2017-Sep-19 00:30N 53°36' E 008°31'0 0.0
2017-Sep-19 00:00N 53°36' E 008°31'0 0.0
2017-Sep-18 23:30N 53°36' E 008°31'0 0.0
2017-Sep-18 23:00N 53°36' E 008°31'0 0.0
2017-Sep-18 22:30N 53°36' E 008°31'0 0.0
2017-Sep-18 22:00N 53°36' E 008°31'0 0.0
2017-Sep-18 21:30N 53°36' E 008°31'0 0.0
2017-Sep-18 21:00N 53°36' E 008°31'0 0.0
2017-Sep-18 20:30N 53°36' E 008°31'0 0.0
2017-Sep-18 20:00N 53°36' E 008°31'0 0.0
2017-Sep-18 19:30N 53°36' E 008°31'0 0.0
2017-Sep-18 19:00N 53°36' E 008°31'0 0.0
2017-Sep-18 18:30N 53°36' E 008°31'0 0.0
2017-Sep-18 18:00N 53°36' E 008°31'0 0.0
2017-Sep-18 17:30N 53°36' E 008°31'0 0.0
2017-Sep-18 17:00N 53°36' E 008°31'0 0.0
2017-Sep-18 16:30N 53°36' E 008°31'0 0.0
2017-Sep-18 16:00N 53°36' E 008°31'0 0.0
2017-Sep-18 15:30N 53°36' E 008°31'0 0.0
2017-Sep-18 15:00N 53°36' E 008°31'0 0.0
2017-Sep-18 14:30N 53°36' E 008°31'0 0.0
2017-Sep-18 14:00N 53°36' E 008°31'0 0.6
2017-Sep-18 13:30N 53°36' E 008°30'5 9.7
2017-Sep-18 13:00N 53°39' E 008°24'612.5
2017-Sep-18 12:31N 53°43' E 008°16'713.7
2017-Sep-18 12:00N 53°48' E 008°08'714.1
2017-Sep-18 11:30N 53°51' E 007°57'612.7
2017-Sep-18 11:00N 53°53' E 007°46'8 4.7
2017-Sep-18 09:20N 53°52' E 007°33'0 0.1
2017-Sep-18 09:00N 53°52' E 007°33'0 0.1
2017-Sep-18 08:30N 53°52' E 007°33'0 0.4
2017-Sep-18 07:58N 53°52' E 007°33'0 0.8
2017-Sep-18 07:30N 53°53' E 007°33'1 2.0
2017-Sep-18 06:59N 53°53' E 007°34'1 1.5
2017-Sep-18 06:30N 53°53' E 007°33'1 1.5
2017-Sep-18 06:00N 53°53' E 007°32'1 2.1
2017-Sep-18 05:30N 53°53' E 007°30'3 6.1
2017-Sep-18 05:00N 53°53' E 007°25'1110.2
2017-Sep-18 03:56N 53°50' E 007°07'59 9.1
2017-Sep-17 21:30N 53°35' E 005°31'5 9.4
2017-Sep-17 21:00N 53°33' E 005°24'5 9.3
2017-Sep-17 20:30N 53°32' E 005°17'5 9.5
2017-Sep-17 20:00N 53°30' E 005°09'5 9.7
2017-Sep-17 19:30N 53°28' E 005°02'5 9.9
2017-Sep-17 19:00N 53°27' E 004°54'510.2
2017-Sep-17 18:30N 53°25' E 004°46'5 9.3
2017-Sep-17 18:00N 53°21' E 004°41'510.0
2017-Sep-17 17:30N 53°17' E 004°37'510.8
2017-Sep-17 17:00N 53°12' E 004°33'610.8
2017-Sep-17 16:27N 53°07' E 004°28'610.7
2017-Sep-17 15:54N 53°02' E 004°24'510.7
2017-Sep-17 15:28N 52°57' E 004°20'711.0
2017-Sep-17 14:51N 52°51' E 004°15'411.2
2017-Sep-17 14:30N 52°48' E 004°11'611.3
2017-Sep-17 14:00N 52°43' E 004°06'611.4
2017-Sep-17 13:28N 52°38' E 004°01'511.4
2017-Sep-17 13:00N 52°33' E 003°57'611.4
2017-Sep-17 12:30N 52°28' E 003°54'611.4
2017-Sep-17 12:00N 52°22' E 003°52'611.3
2017-Sep-17 11:30N 52°17' E 003°53'611.2
2017-Sep-17 11:00N 52°11' E 003°54'815.5
2017-Sep-17 10:31N 52°04' E 003°55'510.2
2017-Sep-17 10:00N 52°00' E 004°01'3 6.1
2017-Sep-17 09:31N 51°58' E 004°04'2 4.9
2017-Sep-17 09:01N 51°58' E 003°60'1 1.3
2017-Sep-17 08:31N 51°57' E 003°60'0 0.0
2017-Sep-17 07:59N 51°57' E 003°60'0 0.0
2017-Sep-17 07:29N 51°57' E 003°60'0 0.0
2017-Sep-17 06:59N 51°57' E 003°60'0 0.0
2017-Sep-17 06:29N 51°57' E 003°60'0 0.0
2017-Sep-17 05:59N 51°57' E 003°60'0 0.0
2017-Sep-17 05:29N 51°57' E 003°60'0 0.0
2017-Sep-17 04:59N 51°57' E 003°60'0 0.0
2017-Sep-17 04:26N 51°57' E 003°60'0 0.1
2017-Sep-17 03:59N 51°57' E 003°60'0 0.0
2017-Sep-17 03:29N 51°57' E 003°60'0 0.0
2017-Sep-17 02:59N 51°57' E 003°60'0 0.0
2017-Sep-17 02:29N 51°57' E 003°60'0 0.0
2017-Sep-17 01:59N 51°57' E 003°60'0 0.0
2017-Sep-17 01:29N 51°57' E 003°60'0 0.0
2017-Sep-17 00:59N 51°57' E 003°60'0 0.0
2017-Sep-17 00:29N 51°57' E 003°60'0 0.0
2017-Sep-16 23:59N 51°57' E 003°60'0 0.0
2017-Sep-16 23:29N 51°57' E 003°60'0 0.0
2017-Sep-16 22:59N 51°57' E 003°60'0 0.0
2017-Sep-16 22:29N 51°57' E 003°60'0 0.0
2017-Sep-16 21:59N 51°57' E 003°60'0 0.0
2017-Sep-16 21:29N 51°57' E 003°60'0 0.0
2017-Sep-16 20:59N 51°57' E 003°60'0 0.0
2017-Sep-16 20:29N 51°57' E 003°60'0 0.0
2017-Sep-16 19:59N 51°57' E 003°60'0 0.0
2017-Sep-16 19:29N 51°57' E 003°60'0 0.0
2017-Sep-16 18:59N 51°57' E 003°60'0 0.0
2017-Sep-16 18:29N 51°57' E 003°60'0 0.0
2017-Sep-16 17:59N 51°57' E 003°60'0 0.0
2017-Sep-16 17:29N 51°57' E 003°60'0 0.0
2017-Sep-16 16:59N 51°57' E 003°60'0 0.0
2017-Sep-16 16:30N 51°57' E 003°60'1 2.8
2017-Sep-16 16:00N 51°59' E 004°00'3 6.5
2017-Sep-16 15:30N 51°58' E 004°05'4 8.4
2017-Sep-16 15:00N 51°60' E 003°59'815.4
2017-Sep-16 14:30N 51°60' E 003°47'510.4
2017-Sep-16 14:00N 51°58' E 003°38'816.0
2017-Sep-16 13:29N 51°57' E 003°25'916.4
2017-Sep-16 12:57N 51°55' E 003°12'3917.0
2017-Sep-16 10:39N 51°52' E 002°08'318.7
2017-Sep-16 10:30N 51°51' E 002°04'918.7
2017-Sep-16 10:00N 51°49' E 001°50'713.2
2017-Sep-16 09:31N 51°51' E 001°40'5 9.9
2017-Sep-16 09:00N 51°54' E 001°34'714.6
2017-Sep-16 08:30N 51°56' E 001°22'3 6.7
2017-Sep-16 08:00N 51°58' E 001°18'0 0.0
2017-Sep-16 07:29N 51°58' E 001°18'0 0.0
2017-Sep-16 06:59N 51°58' E 001°18'0 0.0
2017-Sep-16 06:29N 51°58' E 001°18'0 0.0
2017-Sep-16 05:59N 51°58' E 001°18'0 0.0
2017-Sep-16 05:29N 51°58' E 001°18'0 0.0
2017-Sep-16 04:59N 51°58' E 001°18'0 0.0
2017-Sep-16 04:29N 51°58' E 001°18'0 0.0
2017-Sep-16 03:59N 51°58' E 001°18'0 0.0
2017-Sep-16 03:29N 51°58' E 001°18'0 0.0
2017-Sep-16 02:59N 51°58' E 001°18'0 0.0
2017-Sep-16 02:29N 51°58' E 001°18'0 0.0
2017-Sep-16 01:59N 51°58' E 001°18'0 0.0
2017-Sep-16 01:29N 51°58' E 001°18'0 0.0
2017-Sep-16 00:59N 51°58' E 001°18'0 0.0
2017-Sep-16 00:29N 51°58' E 001°18'0 0.0
2017-Sep-15 23:59N 51°58' E 001°18'0 0.0
2017-Sep-15 23:29N 51°58' E 001°18'0 0.0
2017-Sep-15 22:59N 51°58' E 001°18'0 0.0
2017-Sep-15 22:29N 51°58' E 001°18'0 0.0
2017-Sep-15 21:59N 51°58' E 001°18'0 0.0
2017-Sep-15 21:29N 51°58' E 001°18'0 0.0
2017-Sep-15 20:59N 51°58' E 001°18'0 0.0
2017-Sep-15 20:29N 51°58' E 001°18'0 0.0
2017-Sep-15 19:59N 51°58' E 001°18'0 0.0
2017-Sep-15 19:29N 51°58' E 001°18'0 0.0
2017-Sep-15 18:59N 51°58' E 001°18'0 0.0
2017-Sep-15 18:29N 51°58' E 001°18'0 0.0
2017-Sep-15 17:59N 51°58' E 001°18'0 0.0
2017-Sep-15 17:29N 51°58' E 001°18'0 0.0
2017-Sep-15 16:59N 51°58' E 001°18'0 0.0
2017-Sep-15 16:29N 51°58' E 001°18'0 0.0
2017-Sep-15 15:59N 51°58' E 001°18'0 0.0
2017-Sep-15 15:29N 51°58' E 001°18'0 0.0
2017-Sep-15 14:59N 51°58' E 001°18'0 0.0
2017-Sep-15 14:29N 51°58' E 001°18'0 0.0
2017-Sep-15 13:59N 51°58' E 001°18'0 0.0
2017-Sep-15 13:29N 51°58' E 001°18'0 0.0
2017-Sep-15 12:59N 51°58' E 001°18'0 0.0
2017-Sep-15 12:29N 51°58' E 001°18'0 0.0
2017-Sep-15 11:59N 51°58' E 001°18'0 0.0
2017-Sep-15 11:29N 51°58' E 001°18'0 0.0
2017-Sep-15 10:59N 51°58' E 001°18'0 0.0
2017-Sep-15 10:29N 51°58' E 001°18'0 0.0
2017-Sep-15 09:59N 51°58' E 001°18'0 0.0
2017-Sep-15 09:29N 51°58' E 001°18'0 0.0
2017-Sep-15 08:59N 51°58' E 001°18'0 0.0
2017-Sep-15 08:29N 51°58' E 001°18'0 0.0
2017-Sep-15 07:59N 51°58' E 001°18'0 0.0
2017-Sep-15 07:29N 51°58' E 001°18'0 0.0
2017-Sep-15 06:59N 51°58' E 001°18'0 0.0
2017-Sep-15 06:29N 51°58' E 001°18'0 0.0
2017-Sep-15 05:59N 51°58' E 001°18'0 0.0
2017-Sep-15 05:29N 51°58' E 001°18'0 0.0
2017-Sep-15 04:59N 51°58' E 001°18'0 0.0
2017-Sep-15 04:29N 51°58' E 001°18'0 0.0
2017-Sep-15 03:59N 51°58' E 001°18'0 0.0
2017-Sep-15 03:29N 51°58' E 001°18'0 0.0
2017-Sep-15 02:59N 51°58' E 001°18'0 0.0
2017-Sep-15 02:29N 51°58' E 001°18'0 0.0
2017-Sep-15 01:59N 51°58' E 001°18'0 0.0
2017-Sep-15 01:29N 51°58' E 001°18'0 0.0
2017-Sep-15 00:59N 51°58' E 001°18'0 0.0
2017-Sep-15 00:29N 51°58' E 001°18'0 0.0
2017-Sep-14 23:59N 51°58' E 001°18'0 0.0
2017-Sep-14 23:29N 51°58' E 001°18'0 0.5
2017-Sep-14 23:01N 51°57' E 001°18'1 1.8
2017-Sep-14 22:31N 51°57' E 001°19'3 6.9
2017-Sep-14 22:00N 51°56' E 001°24'612.5
2017-Sep-14 21:31N 51°54' E 001°34'510.0
2017-Sep-14 21:01N 51°52' E 001°41'3 6.2
2017-Sep-14 20:31N 51°52' E 001°46'2 4.9
2017-Sep-14 20:00N 51°53' E 001°49'1 1.4
2017-Sep-14 19:30N 51°53' E 001°48'1 1.1
2017-Sep-14 19:00N 51°52' E 001°48'1 2.6
2017-Sep-14 18:30N 51°51' E 001°49'4 8.3
2017-Sep-14 18:01N 51°47' E 001°49'611.3
2017-Sep-14 17:30N 51°41' E 001°50'510.5
2017-Sep-14 17:00N 51°36' E 001°52'510.6
2017-Sep-14 16:31N 51°32' E 001°56'510.5
2017-Sep-14 16:00N 51°28' E 002°02'5 9.8
2017-Sep-14 15:30N 51°23' E 002°02'510.3
2017-Sep-14 15:00N 51°19' E 001°57'5 9.8
2017-Sep-14 14:30N 51°15' E 001°52'5 9.4
2017-Sep-14 14:00N 51°12' E 001°47'4 9.0
2017-Sep-14 13:30N 51°08' E 001°43'4 8.9
2017-Sep-14 13:01N 51°04' E 001°39'4 8.7
2017-Sep-14 12:30N 51°00' E 001°36'4 8.5
2017-Sep-14 12:00N 50°57' E 001°32'4 8.8
2017-Sep-14 11:30N 50°53' E 001°28'5 9.2
2017-Sep-14 11:00N 50°49' E 001°25'5 9.5
2017-Sep-14 10:30N 50°45' E 001°22'5 9.3
2017-Sep-14 10:00N 50°41' E 001°18'5 9.8
2017-Sep-14 09:30N 50°38' E 001°12'11 9.8
2017-Sep-14 08:24N 50°30' E 000°60'5 9.6
2017-Sep-14 07:55N 50°28' E 000°53'410.4
2017-Sep-14 07:30N 50°28' E 000°47'510.4
2017-Sep-14 07:00N 50°27' E 000°38'510.4
2017-Sep-14 06:30N 50°25' E 000°31'510.3
2017-Sep-14 06:00N 50°24' E 000°23'510.3
2017-Sep-14 05:30N 50°22' E 000°15'510.1
2017-Sep-14 05:00N 50°21' E 000°08'510.2
2017-Sep-14 04:30N 50°19' E 000°00'510.3
2017-Sep-14 04:00N 50°18' W 000°07'510.7
2017-Sep-14 03:30N 50°16' W 000°16'611.3
2017-Sep-14 03:00N 50°15' W 000°24'611.7
2017-Sep-14 02:30N 50°13' W 000°33'1812.2
2017-Sep-14 01:02N 50°08' W 000°60'612.2
2017-Sep-14 00:32N 50°06' W 001°09'212.2
2017-Sep-14 00:23N 50°06' W 001°11'512.1
2017-Sep-14 00:01N 50°05' W 001°18'612.1
2017-Sep-13 23:30N 50°03' W 001°28'612.0
2017-Sep-13 23:01N 50°02' W 001°37'611.5
2017-Sep-13 22:30N 50°00' W 001°45'611.1
2017-Sep-13 22:01N 49°59' W 001°53'510.6
2017-Sep-13 21:30N 49°57' W 002°01'510.1
2017-Sep-13 21:00N 49°56' W 002°09'21 9.4
2017-Sep-13 18:49N 49°50' W 002°40'3 9.5
2017-Sep-13 18:30N 49°49' W 002°44'5 9.5
2017-Sep-13 18:00N 49°47' W 002°51'510.2
2017-Sep-13 17:30N 49°46' W 002°58'510.2
2017-Sep-13 17:00N 49°44' W 003°06'510.2
2017-Sep-13 16:30N 49°41' W 003°13'510.3
2017-Sep-13 16:00N 49°38' W 003°19'510.3
2017-Sep-13 15:30N 49°36' W 003°26'510.3
2017-Sep-13 15:00N 49°33' W 003°33'1410.2
2017-Sep-13 13:37N 49°26' W 003°52'1 9.8
2017-Sep-13 13:30N 49°25' W 003°53'510.0
2017-Sep-13 12:59N 49°23' W 004°00'510.0
2017-Sep-13 12:29N 49°20' W 004°07'510.2
2017-Sep-13 12:00N 49°18' W 004°13'2410.5
2017-Sep-13 09:42N 49°06' W 004°45'210.7
2017-Sep-13 09:30N 49°04' W 004°48'811.0
2017-Sep-13 08:45N 49°00' W 004°59'311.1
2017-Sep-13 08:28N 48°59' W 005°03'710.8
2017-Sep-13 07:51N 48°55' W 005°12'410.8
2017-Sep-13 07:30N 48°53' W 005°17'510.7
2017-Sep-13 07:00N 48°50' W 005°23'510.6
2017-Sep-13 06:30N 48°47' W 005°30'710.1
2017-Sep-13 05:50N 48°43' W 005°37'3 9.8
2017-Sep-13 05:30N 48°40' W 005°40'  
2017-Sep-11 00:33N 39°30' W 009°51'118.2
2017-Sep-11 00:30N 39°29' W 009°51'1217.7
2017-Sep-10 23:49N 39°17' W 009°52'517.6
2017-Sep-10 23:31N 39°11' W 009°52'917.8
2017-Sep-10 23:00N 39°02' W 009°52'918.1
2017-Sep-10 22:30N 38°53' W 009°52'917.6
2017-Sep-10 22:00N 38°45' W 009°52'917.7
2017-Sep-10 21:30N 38°36' W 009°50'918.1
2017-Sep-10 21:01N 38°27' W 009°47'918.3
2017-Sep-10 20:30N 38°18' W 009°44'918.3
2017-Sep-10 20:01N 38°09' W 009°42'917.8
2017-Sep-10 19:31N 38°01' W 009°39'917.1
2017-Sep-10 19:01N 37°52' W 009°37'816.8
2017-Sep-10 18:31N 37°44' W 009°35'816.4
2017-Sep-10 18:01N 37°36' W 009°33'816.7
2017-Sep-10 17:31N 37°28' W 009°30'917.1
2017-Sep-10 17:01N 37°19' W 009°28'816.9
2017-Sep-10 16:30N 37°11' W 009°25'816.7
2017-Sep-10 16:00N 37°03' W 009°22'816.8
2017-Sep-10 15:31N 36°55' W 009°19'816.6
2017-Sep-10 15:01N 36°48' W 009°13'1616.2
2017-Sep-10 14:01N 36°42' W 008°55'816.7
2017-Sep-10 13:31N 36°39' W 008°45'917.0
2017-Sep-10 13:00N 36°36' W 008°35'917.2
2017-Sep-10 12:31N 36°33' W 008°25'1117.5
2017-Sep-10 11:51N 36°29' W 008°12'617.5
2017-Sep-10 11:31N 36°28' W 008°04'12317.1
2017-Sep-10 04:21N 35°57' W 005°37'514.2
2017-Sep-10 04:00N 35°57' W 005°31'  

Dump ship's entire track history